Time;durP1;ratioP1;P1;durP2;ratioP2;P2;SDS_P1;SDS_P2;PMS_P1;PMS_P2;Temp;Humidity;BMP_temperature;BMP_pressure;BME280_temperature;BME280_humidity;BME280_pressure;Samples;Min_cycle;Max_cycle;Signal;HPM_P1;HPM_P2
2022/08/16 00:01:56;;;;;;;6.85;5.18;;;15.10;99.90;;;;;;6133663;23;20442;-91
2022/08/16 00:04:22;;;;;;;8.77;5.85;;;15.00;99.90;;;;;;6133357;23;20327;-91
2022/08/16 00:06:48;;;;;;;7.22;5.28;;;15.00;99.90;;;;;;6158066;23;20052;-91
2022/08/16 00:13:05;;;;;;;6.38;5.43;;;14.90;99.90;;;;;;6159734;23;20020;-90
2022/08/16 00:15:40;;;;;;;11.15;7.57;;;14.80;99.90;;;;;;6133133;23;20020;-91
2022/08/16 00:18:08;;;;;;;22.23;7.22;;;14.80;99.90;;;;;;6133424;23;20069;-91
2022/08/16 00:20:35;;;;;;;8.57;5.82;;;14.80;99.90;;;;;;6157896;23;20009;-91
2022/08/16 00:23:01;;;;;;;8.50;5.85;;;14.80;99.90;;;;;;6133271;23;20365;-90
2022/08/16 00:25:27;;;;;;;9.05;5.88;;;14.80;99.90;;;;;;6133190;23;20005;-91
2022/08/16 00:27:53;;;;;;;10.88;6.05;;;14.80;99.90;;;;;;6133300;23;20012;-92
2022/08/16 00:30:20;;;;;;;10.70;5.60;;;14.70;99.90;;;;;;6133146;23;20085;-91
2022/08/16 00:32:48;;;;;;;7.60;5.90;;;14.70;99.90;;;;;;6133288;23;20009;-91
2022/08/16 00:35:20;;;;;;;9.32;6.45;;;14.70;99.90;;;;;;6133115;23;20082;-91
2022/08/16 00:37:47;;;;;;;9.93;6.22;;;14.60;99.90;;;;;;6133189;23;20061;-90
2022/08/16 00:40:22;;;;;;;7.50;6.00;;;14.60;99.90;;;;;;6157821;23;20033;-90
2022/08/16 00:42:48;;;;;;;7.47;5.57;;;14.50;99.90;;;;;;6157721;23;20010;-90
2022/08/16 00:45:38;;;;;;;12.45;6.45;;;14.50;99.90;;;;;;6157636;23;20084;-91
2022/08/16 00:48:12;;;;;;;9.23;6.13;;;14.50;99.90;;;;;;6157589;23;20009;-91
2022/08/16 00:50:39;;;;;;;10.40;6.78;;;14.40;99.90;;;;;;6157671;23;20060;-92
2022/08/16 00:53:09;;;;;;;8.30;6.65;;;14.40;99.90;;;;;;6133054;23;20036;-91
2022/08/16 00:55:38;;;;;;;10.27;6.50;;;14.30;99.90;;;;;;6157416;23;20009;-91
2022/08/16 00:58:06;;;;;;;11.57;7.30;;;14.30;99.90;;;;;;6132968;23;20012;-91
2022/08/16 01:00:32;;;;;;;9.75;6.90;;;14.30;99.90;;;;;;6132812;23;20465;-91
2022/08/16 01:03:01;;;;;;;10.88;6.15;;;14.30;99.90;;;;;;6132901;23;20010;-90
2022/08/16 01:05:29;;;;;;;10.55;6.00;;;14.20;99.90;;;;;;6157495;23;20006;-91
2022/08/16 01:07:56;;;;;;;8.93;6.45;;;14.20;99.90;;;;;;6132901;23;20017;-90
2022/08/16 01:10:24;;;;;;;9.45;6.30;;;14.10;99.90;;;;;;6132889;23;20005;-90
2022/08/16 01:12:50;;;;;;;8.90;6.43;;;14.00;99.90;;;;;;6157371;23;20009;-92
2022/08/16 01:15:16;;;;;;;8.90;7.32;;;14.00;99.90;;;;;;6132629;23;20029;-91
2022/08/16 01:17:45;;;;;;;11.20;7.63;;;14.00;99.90;;;;;;6157423;23;20064;-91
2022/08/16 01:20:13;;;;;;;10.68;7.53;;;13.90;99.90;;;;;;6157377;23;20037;-91
2022/08/16 01:22:54;;;;;;;10.40;7.88;;;13.80;99.90;;;;;;6132969;23;20009;-92
2022/08/16 01:25:28;;;;;;;12.93;8.95;;;13.90;99.90;;;;;;6132871;23;20021;-91
2022/08/16 01:27:57;;;;;;;10.63;7.80;;;13.90;99.90;;;;;;6157364;23;20004;-91
2022/08/16 01:30:30;;;;;;;12.77;8.75;;;13.80;99.90;;;;;;6132732;23;20013;-92
2022/08/16 01:32:59;;;;;;;13.32;9.13;;;13.80;99.90;;;;;;6132813;23;20015;-91
2022/08/16 01:35:35;;;;;;;12.32;9.68;;;13.90;99.90;;;;;;6157437;23;20093;-91
2022/08/16 01:38:21;;;;;;;13.75;9.48;;;13.90;99.90;;;;;;6132823;23;20024;-91
2022/08/16 01:40:55;;;;;;;13.00;8.93;;;14.00;99.90;;;;;;6133230;23;20084;-91
2022/08/16 01:43:23;;;;;;;15.98;10.57;;;14.10;99.90;;;;;;6132775;23;20108;-91
2022/08/16 01:45:55;;;;;;;12.70;10.00;;;14.00;99.90;;;;;;6132680;23;20012;-91
2022/08/16 01:48:24;;;;;;;13.80;10.23;;;14.10;99.90;;;;;;6132527;23;20013;-91
2022/08/16 01:50:51;;;;;;;13.65;9.60;;;14.20;99.90;;;;;;6136020;23;20032;-90
2022/08/16 01:53:17;;;;;;;15.05;10.32;;;14.20;99.90;;;;;;6137800;23;20068;-90
2022/08/16 01:56:04;;;;;;;11.05;9.00;;;14.20;99.90;;;;;;6161963;23;20434;-90
2022/08/16 01:58:33;;;;;;;23.40;10.20;;;14.20;99.90;;;;;;6160981;23;20452;-91
2022/08/16 02:00:59;;;;;;;13.02;10.10;;;14.20;99.90;;;;;;6137098;23;20010;-91
2022/08/16 02:03:28;;;;;;;14.48;9.68;;;14.10;99.90;;;;;;6160814;23;20010;-91
2022/08/16 02:05:54;;;;;;;14.20;11.30;;;14.00;99.90;;;;;;6136440;23;20076;-91
2022/08/16 02:08:20;;;;;;;14.45;10.32;;;14.10;99.90;;;;;;6161330;23;20016;-91
2022/08/16 02:10:45;;;;;;;17.40;11.30;;;14.10;99.90;;;;;;6136615;23;20067;-91
2022/08/16 02:13:11;;;;;;;16.23;11.52;;;14.10;99.90;;;;;;6136788;23;20014;-92
2022/08/16 02:15:40;;;;;;;14.77;11.23;;;14.10;99.90;;;;;;6137623;23;20009;-93
2022/08/16 02:18:06;;;;;;;21.13;12.77;;;14.10;99.90;;;;;;6136978;23;20016;-91
2022/08/16 02:20:36;;;;;;;15.10;11.88;;;14.20;99.90;;;;;;6161160;23;20009;-91
2022/08/16 02:23:02;;;;;;;18.38;12.45;;;14.20;99.90;;;;;;6136302;23;20009;-91
2022/08/16 02:25:28;;;;;;;17.50;13.23;;;14.20;99.90;;;;;;6136484;23;20029;-92
2022/08/16 02:27:54;;;;;;;19.77;13.65;;;14.20;99.90;;;;;;6136216;23;20052;-91
2022/08/16 02:30:23;;;;;;;20.10;13.65;;;14.20;99.90;;;;;;6136339;23;20009;-92
2022/08/16 02:32:49;;;;;;;18.90;14.02;;;14.20;99.90;;;;;;6137036;23;20032;-92
2022/08/16 02:35:16;;;;;;;20.95;14.48;;;14.30;99.90;;;;;;6136687;23;20005;-91
2022/08/16 02:37:42;;;;;;;18.00;13.25;;;14.30;99.90;;;;;;6136343;23;20010;-91
2022/08/16 02:40:10;;;;;;;21.10;13.65;;;14.40;99.90;;;;;;6161353;23;20382;-92
2022/08/16 02:42:36;;;;;;;15.48;12.18;;;14.30;99.90;;;;;;6136826;23;20032;-91
2022/08/16 02:45:04;;;;;;;16.38;12.32;;;14.20;99.90;;;;;;6135967;23;20397;-92
2022/08/16 02:47:30;;;;;;;21.75;13.93;;;14.10;99.90;;;;;;6135895;23;20009;-92
2022/08/16 02:49:56;;;;;;;19.08;12.90;;;14.10;99.90;;;;;;6137706;23;20038;-92
2022/08/16 02:52:23;;;;;;;23.05;13.73;;;14.10;99.90;;;;;;6138965;23;20397;-92
2022/08/16 02:54:51;;;;;;;20.88;14.18;;;14.00;99.90;;;;;;6138752;23;20009;-91
2022/08/16 02:57:16;;;;;;;20.45;14.85;;;14.10;99.90;;;;;;6138359;23;20040;-91
2022/08/16 02:59:42;;;;;;;23.83;16.40;;;14.10;99.90;;;;;;6162906;23;20019;-91
2022/08/16 03:02:09;;;;;;;26.35;17.38;;;14.20;99.90;;;;;;6138698;23;20012;-91
2022/08/16 03:04:38;;;;;;;21.90;15.32;;;14.30;99.90;;;;;;6138418;23;20017;-92
2022/08/16 03:07:05;;;;;;;22.05;15.45;;;14.30;99.90;;;;;;6138549;23;20017;-91
2022/08/16 03:09:41;;;;;;;23.75;15.82;;;14.30;99.90;;;;;;6140548;23;20009;-91
2022/08/16 03:12:08;;;;;;;21.70;14.05;;;14.40;99.90;;;;;;6138669;23;20013;-91
2022/08/16 03:14:34;;;;;;;19.90;13.57;;;14.30;99.90;;;;;;6138111;23;20010;-91
2022/08/16 03:17:01;;;;;;;17.45;14.10;;;14.30;99.90;;;;;;6137347;23;20012;-91
2022/08/16 03:19:34;;;;;;;22.10;14.90;;;14.20;99.90;;;;;;6139297;23;20338;-91
2022/08/16 03:22:00;;;;;;;18.92;12.98;;;14.10;99.90;;;;;;6138032;23;20064;-92
2022/08/16 03:24:27;;;;;;;21.77;14.65;;;14.10;99.90;;;;;;6138448;23;20435;-91
2022/08/16 03:26:54;;;;;;;21.20;15.80;;;14.00;99.90;;;;;;6138429;23;20064;-91
2022/08/16 03:29:20;;;;;;;20.45;15.35;;;14.00;99.90;;;;;;6138359;23;20032;-91
2022/08/16 03:31:46;;;;;;;24.25;15.55;;;13.90;99.90;;;;;;6138413;23;20059;-92
2022/08/16 03:34:12;;;;;;;26.58;15.88;;;13.90;99.90;;;;;;6138531;23;20069;-91
2022/08/16 03:36:38;;;;;;;23.83;17.00;;;13.80;99.90;;;;;;6137754;23;20013;-91
2022/08/16 03:39:05;;;;;;;26.33;17.00;;;13.80;99.90;;;;;;6138240;23;20009;-92
2022/08/16 03:41:30;;;;;;;24.30;16.77;;;13.80;99.90;;;;;;6138001;23;20013;-91
2022/08/16 03:43:59;;;;;;;33.03;17.75;;;13.80;99.90;;;;;;6138711;23;20011;-92
2022/08/16 03:46:30;;;;;;;29.65;17.70;;;13.70;99.90;;;;;;6138608;23;20008;-91
2022/08/16 03:48:57;;;;;;;29.05;19.00;;;13.70;99.90;;;;;;6138542;23;20010;-91
2022/08/16 03:51:23;;;;;;;26.70;18.42;;;13.60;99.90;;;;;;6137179;23;20029;-92
2022/08/16 03:53:54;;;;;;;28.08;18.20;;;13.60;99.90;;;;;;6138744;23;20045;-92
2022/08/16 03:56:20;;;;;;;26.60;17.35;;;13.60;99.90;;;;;;6137503;23;20452;-92
2022/08/16 03:58:48;;;;;;;29.58;18.42;;;13.60;99.90;;;;;;6137649;23;20016;-92
2022/08/16 04:01:14;;;;;;;27.92;18.08;;;13.60;99.90;;;;;;6137173;23;20052;-92
2022/08/16 04:03:40;;;;;;;25.77;17.92;;;13.50;99.90;;;;;;6137517;23;20010;-91
2022/08/16 04:06:06;;;;;;;27.00;18.23;;;13.50;99.90;;;;;;6137894;23;20068;-92
2022/08/16 04:08:32;;;;;;;29.33;19.45;;;13.50;99.90;;;;;;6137042;23;20092;-92
2022/08/16 04:10:59;;;;;;;27.95;17.05;;;13.50;99.90;;;;;;6138029;23;20064;-93
2022/08/16 04:13:27;;;;;;;23.33;16.75;;;13.40;99.90;;;;;;6138350;23;20478;-92
2022/08/16 04:15:55;;;;;;;22.67;17.17;;;13.30;99.90;;;;;;6138187;23;20017;-91
2022/08/16 04:18:22;;;;;;;28.42;17.90;;;13.30;99.90;;;;;;6138531;23;20013;-91
2022/08/16 04:20:51;;;;;;;26.10;17.42;;;13.20;99.90;;;;;;6136197;23;20021;-90
2022/08/16 04:23:22;;;;;;;26.80;17.38;;;13.20;99.90;;;;;;6135469;23;20017;-91
2022/08/16 04:25:51;;;;;;;26.88;18.35;;;13.20;99.90;;;;;;6134814;23;20006;-91
2022/08/16 04:28:16;;;;;;;25.65;17.02;;;13.30;99.90;;;;;;6160441;23;20066;-91
2022/08/16 04:30:43;;;;;;;26.30;18.50;;;13.40;99.90;;;;;;6158674;23;20390;-90
2022/08/16 04:33:09;;;;;;;29.13;18.35;;;13.50;99.90;;;;;;6133987;23;20422;-90
2022/08/16 04:35:37;;;;;;;25.10;17.13;;;13.70;99.90;;;;;;6134509;23;20343;-91
2022/08/16 04:38:04;;;;;;;26.52;17.92;;;13.80;99.90;;;;;;6134697;23;20021;-91
2022/08/16 04:40:37;;;;;;;30.35;18.08;;;13.90;99.90;;;;;;6159286;23;20012;-91
2022/08/16 04:43:03;;;;;;;26.00;18.05;;;14.00;99.90;;;;;;6135278;23;20010;-90
2022/08/16 04:45:30;;;;;;;24.10;17.73;;;14.20;99.90;;;;;;6135261;23;20032;-90
2022/08/16 04:47:58;;;;;;;23.90;17.25;;;14.30;99.90;;;;;;6134772;23;20018;-91
2022/08/16 04:50:27;;;;;;;19.48;15.38;;;14.50;99.90;;;;;;6135369;23;20751;-91
2022/08/16 04:53:22;;;;;;;23.58;16.05;;;14.60;99.90;;;;;;6142150;23;20016;-91
2022/08/16 04:55:50;;;;;;;23.15;16.05;;;14.60;99.90;;;;;;6158976;23;20013;-91
2022/08/16 04:58:17;;;;;;;22.98;15.85;;;14.70;99.90;;;;;;6135393;23;20064;-91
2022/08/16 05:00:43;;;;;;;26.55;14.10;;;14.90;99.90;;;;;;6135674;23;20009;-90
2022/08/16 05:03:14;;;;;;;19.73;13.97;;;15.10;99.90;;;;;;6159892;23;20402;-90
2022/08/16 05:05:48;;;;;;;19.20;13.63;;;15.30;99.90;;;;;;6137236;23;20233;-91
2022/08/16 05:08:20;;;;;;;16.63;12.73;;;15.50;99.90;;;;;;6159246;23;20084;-90
2022/08/16 05:10:53;;;;;;;18.85;13.55;;;15.60;99.90;;;;;;6159393;23;20426;-91
2022/08/16 05:13:19;;;;;;;21.60;15.20;;;15.70;99.90;;;;;;6133842;23;20072;-90
2022/08/16 05:15:46;;;;;;;19.85;14.77;;;15.70;99.90;;;;;;6134669;23;20097;-89
2022/08/16 05:18:14;;;;;;;20.95;14.43;;;15.70;99.90;;;;;;6159686;23;20013;-91
2022/08/16 05:20:49;;;;;;;21.40;14.48;;;15.80;99.90;;;;;;6136317;23;20378;-90
2022/08/16 05:23:16;;;;;;;20.15;13.88;;;15.90;99.90;;;;;;6134759;23;20017;-90
2022/08/16 05:25:43;;;;;;;17.65;13.45;;;16.20;99.90;;;;;;6134972;23;20010;-91
2022/08/16 05:28:10;;;;;;;16.05;12.70;;;16.40;99.90;;;;;;6134178;23;20064;-91
2022/08/16 05:30:37;;;;;;;13.48;10.82;;;16.60;99.90;;;;;;6159139;23;20009;-91
2022/08/16 05:33:11;;;;;;;14.93;11.13;;;16.80;99.90;;;;;;6136375;23;20016;-91
2022/08/16 05:35:37;;;;;;;15.32;11.02;;;17.00;99.90;;;;;;6158956;23;20156;-91
2022/08/16 05:38:09;;;;;;;17.83;11.55;;;17.20;99.90;;;;;;6136011;23;20013;-91
2022/08/16 05:40:35;;;;;;;13.15;10.73;;;17.30;99.90;;;;;;6135104;23;20014;-91
2022/08/16 05:43:01;;;;;;;16.77;11.45;;;17.40;99.90;;;;;;6134829;23;20052;-92
2022/08/16 05:45:27;;;;;;;14.80;11.57;;;17.50;99.90;;;;;;6135000;23;20426;-91
2022/08/16 05:47:57;;;;;;;17.63;11.73;;;17.60;99.90;;;;;;6133301;23;20068;-90
2022/08/16 05:50:23;;;;;;;12.95;10.45;;;17.70;99.90;;;;;;6157203;23;20009;-89
2022/08/16 05:52:50;;;;;;;16.48;11.15;;;17.70;99.90;;;;;;6133307;23;20084;-91
2022/08/16 05:55:17;;;;;;;14.77;10.73;;;17.80;99.90;;;;;;6132968;23;20068;-91
2022/08/16 05:57:46;;;;;;;17.58;10.57;;;17.90;99.90;;;;;;6132555;23;20016;-91
2022/08/16 06:00:13;;;;;;;17.27;10.70;;;17.70;99.90;;;;;;6133072;23;20010;-91
2022/08/16 06:02:43;;;;;;;14.48;10.68;;;17.80;99.90;;;;;;6158122;23;20021;-91
2022/08/16 06:05:41;;;;;;;14.20;9.75;;;17.70;99.90;;;;;;6157254;23;20701;-91
2022/08/16 06:08:06;;;;;;;12.25;10.02;;;17.70;99.90;;;;;;6133899;23;20045;-90
2022/08/16 06:10:41;;;;;;;14.40;10.15;;;17.80;99.90;;;;;;6135111;23;20068;-91
2022/08/16 06:13:07;;;;;;;16.52;11.68;;;17.70;99.90;;;;;;6157748;23;20010;-92
2022/08/16 06:15:35;;;;;;;18.88;10.90;;;17.80;99.90;;;;;;6133585;23;20010;-90
2022/08/16 06:18:02;;;;;;;13.05;8.68;;;17.90;99.90;;;;;;6133087;23;20013;-90
2022/08/16 06:20:29;;;;;;;12.23;9.82;;;18.00;99.90;;;;;;6132495;23;20016;-89
2022/08/16 06:22:57;;;;;;;10.63;9.52;;;18.00;99.90;;;;;;6156503;23;20014;-90
2022/08/16 06:25:27;;;;;;;9.93;8.38;;;18.20;99.90;;;;;;6134299;23;20025;-89
2022/08/16 06:27:54;;;;;;;12.55;8.68;;;18.30;99.90;;;;;;6135136;23;20009;-89
2022/08/16 06:30:21;;;;;;;14.52;9.05;;;18.70;99.90;;;;;;6134576;23;20009;-90
2022/08/16 06:32:48;;;;;;;11.43;9.45;;;18.80;99.90;;;;;;6158413;23;20009;-91
2022/08/16 06:35:16;;;;;;;16.65;10.35;;;19.00;99.90;;;;;;6134590;23;20342;-91
2022/08/16 06:37:44;;;;;;;17.33;11.13;;;19.10;99.90;;;;;;6159807;23;20443;-90
2022/08/16 06:40:11;;;;;;;14.27;10.38;;;19.20;99.90;;;;;;6134955;23;20032;-90
2022/08/16 06:42:42;;;;;;;11.55;10.00;;;19.20;99.90;;;;;;6135774;23;20029;-90
2022/08/16 06:45:27;;;;;;;14.35;9.65;;;19.30;99.90;;;;;;6159523;23;20052;-90
2022/08/16 06:48:05;;;;;;;14.70;10.77;;;19.50;99.90;;;;;;6159341;23;20012;-91
2022/08/16 06:50:31;;;;;;;13.45;10.43;;;19.50;99.90;;;;;;6134349;23;20013;-91
2022/08/16 06:53:02;;;;;;;13.18;10.38;;;19.60;99.90;;;;;;6135762;23;20041;-91
2022/08/16 06:55:29;;;;;;;18.15;9.65;;;19.60;99.90;;;;;;6159537;23;20009;-90
2022/08/16 06:58:23;;;;;;;16.02;10.75;;;19.70;99.90;;;;;;6134688;23;20053;-90
2022/08/16 07:01:02;;;;;;;14.70;10.50;;;19.90;99.90;;;;;;6138734;23;20057;-92
2022/08/16 07:03:30;;;;;;;16.95;10.77;;;19.80;99.90;;;;;;6161632;23;20014;-91
2022/08/16 07:05:57;;;;;;;15.27;10.07;;;19.80;99.90;;;;;;6134814;23;20020;-90
2022/08/16 07:08:31;;;;;;;14.93;10.02;;;20.00;99.90;;;;;;6159170;23;20005;-91
2022/08/16 07:10:58;;;;;;;13.05;9.48;;;20.40;99.90;;;;;;6158708;23;20025;-92
2022/08/16 07:13:26;;;;;;;12.82;8.63;;;20.70;99.90;;;;;;6135488;23;20096;-92
2022/08/16 07:15:53;;;;;;;15.30;10.20;;;20.80;99.90;;;;;;6138853;23;20064;-91
2022/08/16 07:18:25;;;;;;;17.55;10.88;;;20.70;99.90;;;;;;6143300;23;20036;-91
2022/08/16 07:20:52;;;;;;;14.77;9.70;;;20.50;99.90;;;;;;6138939;23;20029;-90
2022/08/16 07:23:20;;;;;;;12.68;8.98;;;20.40;99.90;;;;;;6140870;23;20072;-91
2022/08/16 07:25:51;;;;;;;17.70;9.95;;;20.40;99.90;;;;;;6136852;23;20005;-89
2022/08/16 07:28:19;;;;;;;11.75;9.18;;;20.50;99.90;;;;;;6135191;23;20092;-90
2022/08/16 07:30:46;;;;;;;14.43;8.18;;;20.70;99.90;;;;;;6134604;23;20084;-91
2022/08/16 07:33:36;;;;;;;15.13;8.88;;;21.00;99.90;;;;;;6159706;23;20065;-91
2022/08/16 07:36:03;;;;;;;13.82;9.57;;;21.40;99.90;;;;;;6134493;23;20014;-90
2022/08/16 07:38:31;;;;;;;12.73;9.15;;;21.70;99.90;;;;;;6134610;23;20009;-93
2022/08/16 07:40:57;;;;;;;12.75;8.60;;;21.70;99.90;;;;;;6159863;23;20100;-92
2022/08/16 07:43:23;;;;;;;11.65;8.80;;;21.70;99.90;;;;;;6159553;23;20002;-90
2022/08/16 07:45:50;;;;;;;13.02;8.27;;;21.90;99.90;;;;;;6159666;23;20006;-91
2022/08/16 07:48:16;;;;;;;11.68;8.30;;;21.90;99.90;;;;;;6133926;23;20017;-90
2022/08/16 07:50:46;;;;;;;8.75;7.00;;;21.70;99.90;;;;;;6135001;23;20006;-89
2022/08/16 07:53:13;;;;;;;10.40;8.23;;;21.90;99.90;;;;;;6134635;23;20067;-91
2022/08/16 07:55:39;;;;;;;8.93;7.40;;;21.80;99.90;;;;;;6135950;23;20005;-90
2022/08/16 07:58:05;;;;;;;11.65;8.05;;;21.90;99.90;;;;;;6160343;23;20068;-90
2022/08/16 08:00:34;;;;;;;12.52;7.50;;;21.80;99.90;;;;;;6136246;23;20067;-91
2022/08/16 08:03:00;;;;;;;14.25;7.63;;;21.80;99.90;;;;;;6134428;23;20033;-92
2022/08/16 08:05:27;;;;;;;10.93;8.23;;;21.60;99.90;;;;;;6134491;23;20369;-91
2022/08/16 08:07:54;;;;;;;12.68;8.73;;;21.50;99.90;;;;;;6134448;23;20005;-90
2022/08/16 08:10:22;;;;;;;9.20;6.82;;;21.80;99.90;;;;;;6134304;23;20041;-91
2022/08/16 08:12:49;;;;;;;13.13;8.32;;;22.10;99.90;;;;;;6159547;23;20002;-90
2022/08/16 08:15:17;;;;;;;10.25;7.80;;;22.00;99.90;;;;;;6135080;23;20020;-91
2022/08/16 08:17:43;;;;;;;13.02;8.43;;;21.70;99.90;;;;;;6159107;23;20006;-90
2022/08/16 08:20:14;;;;;;;12.55;8.20;;;21.50;99.90;;;;;;6135982;23;20006;-91
2022/08/16 08:22:41;;;;;;;11.73;7.72;;;21.60;99.90;;;;;;6159386;23;20005;-90
2022/08/16 08:25:09;;;;;;;13.85;8.25;;;21.80;99.90;;;;;;6135235;23;20009;-90
2022/08/16 08:27:35;;;;;;;11.73;8.15;;;22.00;99.90;;;;;;6159489;23;20021;-91
2022/08/16 08:30:03;;;;;;;13.07;8.38;;;22.10;99.90;;;;;;6159657;23;20033;-91
2022/08/16 08:32:29;;;;;;;13.15;8.57;;;22.10;99.90;;;;;;6159203;23;20021;-91
2022/08/16 08:35:00;;;;;;;12.88;8.27;;;22.20;99.90;;;;;;6135536;23;20006;-92
2022/08/16 08:37:26;;;;;;;13.25;8.13;;;22.40;99.90;;;;;;6134758;23;20009;-90
2022/08/16 08:39:55;;;;;;;11.85;8.63;;;22.40;99.90;;;;;;6136219;23;20009;-91
2022/08/16 08:42:22;;;;;;;8.73;7.53;;;22.40;99.90;;;;;;6159800;23;20161;-92
2022/08/16 08:44:48;;;;;;;10.43;7.80;;;22.40;99.90;;;;;;6134705;23;20017;-90
2022/08/16 08:47:14;;;;;;;7.95;6.72;;;22.80;99.90;;;;;;6159201;23;20014;-91
2022/08/16 08:49:40;;;;;;;14.45;8.82;;;23.10;99.90;;;;;;6134915;23;20321;-92
2022/08/16 08:52:06;;;;;;;13.13;7.35;;;23.30;99.90;;;;;;6134665;23;20358;-90
2022/08/16 08:54:32;;;;;;;10.90;6.82;;;23.00;99.90;;;;;;6133800;23;20017;-90
2022/08/16 08:56:58;;;;;;;9.68;7.43;;;22.80;99.90;;;;;;6134340;23;20013;-91
2022/08/16 08:59:53;;;;;;;11.80;8.13;;;22.70;99.90;;;;;;6135693;23;20097;-92
2022/08/16 09:02:19;;;;;;;11.60;7.93;;;22.40;99.90;;;;;;6157925;23;20013;-93
2022/08/16 09:04:52;;;;;;;11.23;8.25;;;22.00;99.90;;;;;;6134760;23;20024;-91
2022/08/16 09:07:20;;;;;;;10.65;7.72;;;21.90;99.90;;;;;;6132694;23;20016;-91
2022/08/16 09:09:47;;;;;;;10.63;8.07;;;22.20;99.90;;;;;;6132764;23;20006;-92
2022/08/16 09:12:16;;;;;;;10.18;7.50;;;22.20;99.90;;;;;;6132401;23;20013;-90
2022/08/16 09:15:00;;;;;;;11.65;7.78;;;22.30;99.90;;;;;;6135518;23;20381;-90
2022/08/16 09:17:29;;;;;;;13.95;7.85;;;22.40;99.90;;;;;;6132939;23;20095;-91
2022/08/16 09:19:55;;;;;;;14.25;8.95;;;22.50;99.90;;;;;;6132660;23;20009;-91
2022/08/16 09:22:26;;;;;;;11.68;8.93;;;23.00;99.90;;;;;;6157096;23;20011;-92
2022/08/16 09:24:52;;;;;;;11.40;8.10;;;23.10;99.90;;;;;;6156451;23;20401;-90
2022/08/16 09:27:19;;;;;;;10.52;7.75;;;23.20;99.90;;;;;;6132420;23;20009;-90
2022/08/16 09:29:44;;;;;;;12.63;8.68;;;23.90;99.90;;;;;;6153902;23;20020;-80
2022/08/16 09:32:11;;;;;;;12.05;7.53;;;24.90;99.90;;;;;;6153144;23;20006;-80
2022/08/16 09:34:37;;;;;;;12.00;6.88;;;25.70;99.90;;;;;;6154559;23;20033;-81
2022/08/16 09:37:03;;;;;;;9.15;7.18;;;26.70;99.90;;;;;;6155165;23;20009;-80
2022/08/16 09:39:29;;;;;;;11.68;7.38;;;26.70;99.90;;;;;;6153608;23;20033;-82
2022/08/16 09:41:57;;;;;;;11.77;6.60;;;26.20;99.90;;;;;;6153685;23;20017;-80
2022/08/16 09:44:25;;;;;;;9.13;6.65;;;26.30;99.90;;;;;;6154863;23;20500;-81
2022/08/16 09:46:52;;;;;;;8.40;6.70;;;26.30;99.90;;;;;;6153320;23;20445;-81
2022/08/16 09:49:19;;;;;;;10.32;6.38;;;26.30;99.90;;;;;;6155249;23;20038;-81
2022/08/16 09:51:45;;;;;;;10.23;6.45;;;26.40;99.90;;;;;;6155705;23;20334;-81
2022/08/16 09:54:12;;;;;;;12.25;6.72;;;27.00;99.90;;;;;;6155462;23;19998;-82
2022/08/16 09:56:40;;;;;;;8.50;5.65;;;27.70;99.90;;;;;;6155160;23;20014;-81
2022/08/16 09:59:08;;;;;;;18.85;7.40;;;27.70;99.90;;;;;;6130153;23;20686;-81
2022/08/16 10:01:35;;;;;;;12.60;8.27;;;27.10;99.90;;;;;;6131444;23;20016;-81
2022/08/16 10:04:01;;;;;;;13.77;8.50;;;26.20;99.90;;;;;;6156976;23;20012;-81
2022/08/16 10:06:28;;;;;;;12.48;8.18;;;25.20;99.90;;;;;;6156828;23;20032;-81
2022/08/16 10:08:53;;;;;;;8.63;6.57;;;25.00;99.90;;;;;;6156817;23;20092;-81
2022/08/16 10:14:04;;;;;;;10.77;6.90;;;23.80;99.90;;;;;;6157675;23;20013;-82
2022/08/16 10:16:30;;;;;;;14.60;8.32;;;23.80;99.90;;;;;;6157089;23;20045;-81
2022/08/16 10:18:56;;;;;;;11.05;6.45;;;24.00;99.90;;;;;;6157202;23;20453;-81
2022/08/16 10:21:22;;;;;;;9.30;6.50;;;24.50;99.90;;;;;;6157522;23;20010;-81
2022/08/16 10:23:48;;;;;;;7.32;6.20;;;25.10;99.90;;;;;;6155278;23;20064;-81
2022/08/16 10:26:15;;;;;;;9.60;5.63;;;25.50;99.90;;;;;;6156558;23;20001;-81
2022/08/16 10:28:41;;;;;;;7.82;5.63;;;25.50;99.90;;;;;;6131218;23;20002;-81
2022/08/16 10:31:09;;;;;;;7.55;5.30;;;25.50;99.90;;;;;;6155344;23;20024;-81
2022/08/16 10:33:35;;;;;;;13.65;5.65;;;25.60;99.90;;;;;;6130699;23;20009;-81
2022/08/16 10:36:05;;;;;;;8.38;6.43;;;27.00;99.90;;;;;;6155839;23;20111;-81
2022/08/16 10:38:32;;;;;;;12.55;5.43;;;28.20;99.90;;;;;;6155648;23;20049;-81
2022/08/16 10:40:58;;;;;;;6.43;4.95;;;29.80;99.90;;;;;;6155502;23;20016;-82
2022/08/16 10:43:23;;;;;;;9.07;4.55;;;30.60;99.90;;;;;;6154786;23;20013;-81
2022/08/16 10:45:50;;;;;;;6.80;4.53;;;31.40;98.70;;;;;;6155108;23;20680;-82
2022/08/16 10:48:17;;;;;;;7.78;4.30;;;31.70;95.00;;;;;;6156540;23;20041;-82
2022/08/16 10:50:43;;;;;;;13.70;5.07;;;31.80;94.60;;;;;;6157154;23;20032;-82
2022/08/16 10:53:09;;;;;;;5.72;4.65;;;31.20;93.40;;;;;;6156677;23;20622;-82
2022/08/16 10:55:37;;;;;;;6.32;4.65;;;30.80;93.90;;;;;;6157193;23;20009;-81
2022/08/16 10:58:06;;;;;;;6.53;4.53;;;30.60;93.10;;;;;;6156555;23;20068;-81
2022/08/16 11:00:33;;;;;;;8.07;3.97;;;30.30;93.70;;;;;;6156949;23;20009;-82
2022/08/16 11:03:02;;;;;;;5.68;3.75;;;30.00;92.70;;;;;;6155124;23;20010;-81
2022/08/16 11:05:33;;;;;;;6.55;3.67;;;29.80;92.50;;;;;;6155114;23;20002;-82
2022/08/16 11:08:00;;;;;;;10.30;5.60;;;30.60;91.50;;;;;;6155449;23;20006;-81
2022/08/16 11:10:30;;;;;;;6.97;4.15;;;31.20;90.90;;;;;;6156134;23;19998;-82
2022/08/16 11:12:56;;;;;;;9.00;4.32;;;31.10;90.20;;;;;;6156695;23;20085;-81
2022/08/16 11:15:22;;;;;;;6.20;3.60;;;31.40;90.50;;;;;;6156501;23;20005;-82
2022/08/16 11:17:50;;;;;;;4.50;3.70;;;31.70;90.90;;;;;;6156164;23;20080;-80
2022/08/16 11:20:16;;;;;;;6.47;4.00;;;31.80;88.20;;;;;;6155194;23;20006;-80
2022/08/16 11:22:43;;;;;;;8.23;4.50;;;31.30;89.00;;;;;;6154898;23;20040;-80
2022/08/16 11:25:10;;;;;;;9.32;4.78;;;31.10;90.00;;;;;;6155880;23;20013;-80
2022/08/16 11:27:36;;;;;;;7.22;4.82;;;30.80;90.60;;;;;;6154932;23;20009;-80
2022/08/16 11:30:04;;;;;;;9.90;4.50;;;30.80;90.10;;;;;;6156300;23;20002;-80
2022/08/16 11:32:30;;;;;;;6.50;4.65;;;30.10;90.50;;;;;;6156574;23;20032;-80
2022/08/16 11:34:55;;;;;;;8.20;5.00;;;29.10;91.90;;;;;;6154817;23;20009;-80
2022/08/16 11:37:22;;;;;;;5.85;4.82;;;28.80;92.00;;;;;;6129641;23;20437;-79
2022/08/16 11:39:48;;;;;;;6.90;4.72;;;28.40;91.90;;;;;;6156523;23;20010;-80
2022/08/16 11:42:14;;;;;;;5.72;4.43;;;27.90;92.80;;;;;;6157188;23;20414;-80
2022/08/16 11:44:40;;;;;;;9.00;4.40;;;28.30;92.40;;;;;;6156321;23;20014;-80
2022/08/16 11:47:59;;;;;;;6.20;5.13;;;29.30;91.80;;;;;;6154722;23;20041;-80
2022/08/16 11:50:24;;;;;;;6.95;5.13;;;28.60;91.40;;;;;;6155695;23;20055;-80
2022/08/16 11:52:50;;;;;;;7.63;5.30;;;27.60;93.30;;;;;;6156512;23;20434;-80
2022/08/16 11:55:16;;;;;;;6.07;4.75;;;27.20;94.00;;;;;;6156022;23;20084;-80
2022/08/16 11:57:42;;;;;;;7.63;5.93;;;27.60;94.30;;;;;;6155057;23;20097;-80
2022/08/16 12:00:12;;;;;;;6.47;4.82;;;27.80;93.30;;;;;;6156502;23;20010;-80
2022/08/16 12:02:39;;;;;;;8.30;4.80;;;27.80;93.20;;;;;;6155297;23;20028;-80
2022/08/16 12:05:07;;;;;;;5.78;5.00;;;28.50;92.40;;;;;;6156191;23;20013;-80
2022/08/16 12:07:33;;;;;;;9.82;4.85;;;28.90;92.10;;;;;;6156565;23;20036;-81
2022/08/16 12:10:00;;;;;;;7.60;4.88;;;29.10;91.60;;;;;;6156382;23;20002;-80
2022/08/16 12:12:26;;;;;;;5.25;4.75;;;29.00;91.20;;;;;;6156115;23;20008;-81
2022/08/16 12:14:52;;;;;;;7.57;5.07;;;28.40;91.80;;;;;;6154153;23;20009;-81
2022/08/16 12:17:19;;;;;;;8.93;4.95;;;27.30;92.70;;;;;;6154850;23;20059;-81
2022/08/16 12:19:45;;;;;;;8.15;5.85;;;26.40;94.00;;;;;;6156536;23;20009;-81
2022/08/16 12:22:11;;;;;;;14.18;5.82;;;25.90;95.00;;;;;;6156306;23;20006;-81
2022/08/16 12:24:36;;;;;;;10.52;5.57;;;25.70;95.30;;;;;;6128907;23;20374;-81
2022/08/16 12:27:02;;;;;;;8.02;5.45;;;25.70;95.60;;;;;;6155947;23;20009;-81
2022/08/16 12:29:28;;;;;;;8.07;5.72;;;25.80;95.60;;;;;;6156028;23;20335;-81
2022/08/16 12:31:54;;;;;;;10.48;6.28;;;25.60;96.00;;;;;;6154575;23;20056;-81
2022/08/16 12:34:20;;;;;;;7.57;5.88;;;25.70;96.40;;;;;;6155519;23;20010;-80
2022/08/16 12:36:46;;;;;;;9.27;5.72;;;25.90;96.40;;;;;;6155870;23;20016;-80
2022/08/16 12:39:13;;;;;;;7.43;5.47;;;26.30;95.60;;;;;;6154206;23;20080;-81
2022/08/16 12:41:39;;;;;;;8.65;5.05;;;26.60;95.10;;;;;;6155810;23;20557;-81
2022/08/16 12:44:05;;;;;;;7.72;5.53;;;26.80;94.70;;;;;;6154092;23;20048;-81
2022/08/16 12:46:32;;;;;;;9.48;5.25;;;26.80;94.70;;;;;;6154049;23;20430;-81
2022/08/16 12:49:00;;;;;;;13.55;5.45;;;27.40;93.80;;;;;;6156047;23;20006;-81